Pagrindinis puslapis
METAR-TAF:

METAR-TAF

Oro uostai :

Pattani, Tailandas

platuma: 06-47-08N, ilguma: 101-09-13E, Aukštis: 2 m

METAR: trūkstamas

Laikas: 14:52 (07:52 UTC)

Prognozė

Ataskaita buvo paskelbta 2 valandos ir 52 minutes, ne 05:00 UTC
Prognozė galioja nuo 23 metu 06 UTC su 24 metu 06 UTC
Vėjas 12 kt iš Rytų/Šiaurės Rytų
Matomumas 10 km arba daugiau
Išsisklaidę debesys ne aukštis 2000 ft
Išsisklaidę debesys ne aukštis 10000 ft
Laikinai
nuo 23 metu 06 UTC su 23 metu 12 UTC
Vėjas 12 kt iš Rytų/Šiaurės Rytų su gūsio iki 22 kt
Matomumas: 5000 m
Išsisklaidę debesys ne aukštis 1500 ft
Su prošvaistėmis ne aukštis 10000 ft
lietus
Tikimybė 40% :
Laikinai
nuo 23 metu 20 UTC su 24 metu 02 UTC
Matomumas: 5000 m
Išsisklaidę debesys ne aukštis 1500 ft
Su prošvaistėmis ne aukštis 10000 ft
lietus

TAF: VTSK 230500Z 2306/2406 07012KT 9999 SCT020 SCT100 TEMPO 2306/2312 07012G22KT 5000 RA SCT015 BKN100 PROB40 TEMPO 2320/2402 5000 RA SCT015 BKN100

Orai ataskaitas ir orų prognozės (METAR, TAF).

turimą stotys yra geltonos ir raudonos taškus žemėlapyje.

Perkelti pele per norėdami pamatyti stoties vardą.

Tada spustelėkite, norėdami matyti oro stebėjimo ir prognozės.

Norėdami pakeisti žemėlapį: spustelėkite ant žalios mygtukų su juodo kryžiaus žemyn,; žalią mygtuką su brūkšneliu, jei norite nutolinti; arba žalių rodyklių gretimoms žemėlapius.


METAR-TAF: